sensor_id;sensor_type;location;lat;lon;timestamp;P1;durP1;ratioP1;P2;durP2;ratioP2
2860;SDS011;1438;50.922;6.704;2024-01-06T00:02:18;15.10;;;6.60;;
2860;SDS011;1438;50.922;6.704;2024-01-06T00:04:44;8.60;;;6.70;;
2860;SDS011;1438;50.922;6.704;2024-01-06T00:07:10;8.93;;;7.10;;
2860;SDS011;1438;50.922;6.704;2024-01-06T00:09:38;12.32;;;7.10;;
2860;SDS011;1438;50.922;6.704;2024-01-06T00:12:04;8.80;;;6.90;;
2860;SDS011;1438;50.922;6.704;2024-01-06T00:14:30;8.63;;;7.55;;
2860;SDS011;1438;50.922;6.704;2024-01-06T00:16:56;11.07;;;7.80;;
2860;SDS011;1438;50.922;6.704;2024-01-06T00:19:22;11.37;;;8.03;;
2860;SDS011;1438;50.922;6.704;2024-01-06T00:21:48;12.20;;;9.00;;
2860;SDS011;1438;50.922;6.704;2024-01-06T00:24:14;13.17;;;8.00;;
2860;SDS011;1438;50.922;6.704;2024-01-06T00:26:40;10.40;;;8.70;;
2860;SDS011;1438;50.922;6.704;2024-01-06T00:29:06;11.00;;;9.18;;
2860;SDS011;1438;50.922;6.704;2024-01-06T00:31:32;11.65;;;9.95;;
2860;SDS011;1438;50.922;6.704;2024-01-06T00:33:58;9.68;;;8.63;;
2860;SDS011;1438;50.922;6.704;2024-01-06T00:36:24;13.00;;;9.83;;
2860;SDS011;1438;50.922;6.704;2024-01-06T00:38:50;11.70;;;8.93;;
2860;SDS011;1438;50.922;6.704;2024-01-06T00:41:16;10.83;;;8.97;;
2860;SDS011;1438;50.922;6.704;2024-01-06T00:43:42;11.87;;;9.93;;
2860;SDS011;1438;50.922;6.704;2024-01-06T00:46:08;14.20;;;10.35;;
2860;SDS011;1438;50.922;6.704;2024-01-06T00:48:34;11.00;;;9.33;;
2860;SDS011;1438;50.922;6.704;2024-01-06T00:51:00;14.13;;;10.48;;
2860;SDS011;1438;50.922;6.704;2024-01-06T00:53:26;17.48;;;10.98;;
2860;SDS011;1438;50.922;6.704;2024-01-06T00:55:52;15.18;;;10.80;;
2860;SDS011;1438;50.922;6.704;2024-01-06T00:58:18;12.60;;;10.67;;
2860;SDS011;1438;50.922;6.704;2024-01-06T01:00:44;15.07;;;10.40;;
2860;SDS011;1438;50.922;6.704;2024-01-06T01:03:10;13.43;;;10.33;;
2860;SDS011;1438;50.922;6.704;2024-01-06T01:05:36;15.27;;;10.10;;
2860;SDS011;1438;50.922;6.704;2024-01-06T01:08:05;13.52;;;10.95;;
2860;SDS011;1438;50.922;6.704;2024-01-06T01:10:31;12.82;;;11.35;;
2860;SDS011;1438;50.922;6.704;2024-01-06T01:12:57;18.00;;;11.00;;
2860;SDS011;1438;50.922;6.704;2024-01-06T01:15:24;15.38;;;11.77;;
2860;SDS011;1438;50.922;6.704;2024-01-06T01:17:50;17.45;;;12.10;;
2860;SDS011;1438;50.922;6.704;2024-01-06T01:20:16;17.53;;;11.67;;
2860;SDS011;1438;50.922;6.704;2024-01-06T01:22:42;13.38;;;10.98;;
2860;SDS011;1438;50.922;6.704;2024-01-06T01:25:08;15.87;;;11.30;;
2860;SDS011;1438;50.922;6.704;2024-01-06T01:27:34;14.02;;;11.43;;
2860;SDS011;1438;50.922;6.704;2024-01-06T01:30:00;17.13;;;11.80;;
2860;SDS011;1438;50.922;6.704;2024-01-06T01:32:26;15.10;;;11.32;;
2860;SDS011;1438;50.922;6.704;2024-01-06T01:34:52;16.53;;;12.33;;
2860;SDS011;1438;50.922;6.704;2024-01-06T01:37:19;14.35;;;11.82;;
2860;SDS011;1438;50.922;6.704;2024-01-06T01:39:45;16.53;;;12.33;;
2860;SDS011;1438;50.922;6.704;2024-01-06T01:42:11;17.35;;;13.85;;
2860;SDS011;1438;50.922;6.704;2024-01-06T01:44:36;20.37;;;12.87;;
2860;SDS011;1438;50.922;6.704;2024-01-06T01:47:04;23.67;;;13.10;;
2860;SDS011;1438;50.922;6.704;2024-01-06T01:49:30;15.50;;;12.00;;
2860;SDS011;1438;50.922;6.704;2024-01-06T01:51:57;19.38;;;14.70;;
2860;SDS011;1438;50.922;6.704;2024-01-06T01:54:23;20.42;;;14.05;;
2860;SDS011;1438;50.922;6.704;2024-01-06T01:56:49;19.25;;;14.30;;
2860;SDS011;1438;50.922;6.704;2024-01-06T01:59:16;18.77;;;12.60;;
2860;SDS011;1438;50.922;6.704;2024-01-06T02:01:44;16.00;;;12.40;;
2860;SDS011;1438;50.922;6.704;2024-01-06T02:04:10;18.08;;;13.25;;
2860;SDS011;1438;50.922;6.704;2024-01-06T02:06:36;18.85;;;12.90;;
2860;SDS011;1438;50.922;6.704;2024-01-06T02:09:02;17.67;;;12.83;;
2860;SDS011;1438;50.922;6.704;2024-01-06T02:11:28;22.52;;;13.02;;
2860;SDS011;1438;50.922;6.704;2024-01-06T02:13:54;18.10;;;12.23;;
2860;SDS011;1438;50.922;6.704;2024-01-06T02:16:20;20.63;;;12.87;;
2860;SDS011;1438;50.922;6.704;2024-01-06T02:18:46;17.00;;;12.67;;
2860;SDS011;1438;50.922;6.704;2024-01-06T02:21:12;17.88;;;12.52;;
2860;SDS011;1438;50.922;6.704;2024-01-06T02:23:38;17.77;;;12.50;;
2860;SDS011;1438;50.922;6.704;2024-01-06T02:26:04;18.53;;;13.37;;
2860;SDS011;1438;50.922;6.704;2024-01-06T02:28:30;16.70;;;13.23;;
2860;SDS011;1438;50.922;6.704;2024-01-06T02:30:56;20.77;;;14.20;;
2860;SDS011;1438;50.922;6.704;2024-01-06T02:33:22;19.60;;;13.63;;
2860;SDS011;1438;50.922;6.704;2024-01-06T02:35:49;20.70;;;15.40;;
2860;SDS011;1438;50.922;6.704;2024-01-06T02:38:15;21.90;;;15.90;;
2860;SDS011;1438;50.922;6.704;2024-01-06T02:40:41;24.73;;;15.50;;
2860;SDS011;1438;50.922;6.704;2024-01-06T02:43:08;28.45;;;16.80;;
2860;SDS011;1438;50.922;6.704;2024-01-06T02:45:34;23.50;;;14.82;;
2860;SDS011;1438;50.922;6.704;2024-01-06T02:48:00;24.70;;;15.90;;
2860;SDS011;1438;50.922;6.704;2024-01-06T02:50:26;28.53;;;16.40;;
2860;SDS011;1438;50.922;6.704;2024-01-06T02:52:52;26.07;;;16.43;;
2860;SDS011;1438;50.922;6.704;2024-01-06T02:55:18;26.70;;;17.70;;
2860;SDS011;1438;50.922;6.704;2024-01-06T02:57:44;28.70;;;18.83;;
2860;SDS011;1438;50.922;6.704;2024-01-06T03:00:10;30.60;;;17.13;;
2860;SDS011;1438;50.922;6.704;2024-01-06T03:02:37;31.42;;;17.30;;
2860;SDS011;1438;50.922;6.704;2024-01-06T03:05:06;30.40;;;18.30;;
2860;SDS011;1438;50.922;6.704;2024-01-06T03:07:33;38.38;;;19.80;;
2860;SDS011;1438;50.922;6.704;2024-01-06T03:09:59;34.30;;;21.67;;
2860;SDS011;1438;50.922;6.704;2024-01-06T03:12:24;31.77;;;20.00;;
2860;SDS011;1438;50.922;6.704;2024-01-06T03:14:50;33.13;;;20.27;;
2860;SDS011;1438;50.922;6.704;2024-01-06T03:17:17;33.65;;;20.30;;
2860;SDS011;1438;50.922;6.704;2024-01-06T03:19:43;30.80;;;18.10;;
2860;SDS011;1438;50.922;6.704;2024-01-06T03:22:09;37.03;;;21.15;;
2860;SDS011;1438;50.922;6.704;2024-01-06T03:24:35;30.37;;;18.77;;
2860;SDS011;1438;50.922;6.704;2024-01-06T03:27:02;33.28;;;19.67;;
2860;SDS011;1438;50.922;6.704;2024-01-06T03:29:28;33.28;;;19.73;;
2860;SDS011;1438;50.922;6.704;2024-01-06T03:31:54;37.30;;;20.80;;
2860;SDS011;1438;50.922;6.704;2024-01-06T03:34:20;32.13;;;20.30;;
2860;SDS011;1438;50.922;6.704;2024-01-06T03:36:46;31.27;;;19.83;;
2860;SDS011;1438;50.922;6.704;2024-01-06T03:39:11;34.23;;;21.77;;
2860;SDS011;1438;50.922;6.704;2024-01-06T03:41:38;34.90;;;21.67;;
2860;SDS011;1438;50.922;6.704;2024-01-06T03:44:04;44.70;;;22.87;;
2860;SDS011;1438;50.922;6.704;2024-01-06T03:46:30;43.07;;;24.23;;
2860;SDS011;1438;50.922;6.704;2024-01-06T03:48:56;35.70;;;22.33;;
2860;SDS011;1438;50.922;6.704;2024-01-06T03:51:22;39.90;;;22.03;;
2860;SDS011;1438;50.922;6.704;2024-01-06T03:53:48;39.73;;;21.97;;
2860;SDS011;1438;50.922;6.704;2024-01-06T03:56:14;36.23;;;20.77;;
2860;SDS011;1438;50.922;6.704;2024-01-06T03:58:40;44.13;;;22.33;;
2860;SDS011;1438;50.922;6.704;2024-01-06T04:01:06;44.93;;;24.70;;
2860;SDS011;1438;50.922;6.704;2024-01-06T04:03:32;45.53;;;23.57;;
2860;SDS011;1438;50.922;6.704;2024-01-06T04:05:58;42.20;;;23.93;;
2860;SDS011;1438;50.922;6.704;2024-01-06T04:08:24;46.20;;;23.75;;
2860;SDS011;1438;50.922;6.704;2024-01-06T04:10:50;47.00;;;24.20;;
2860;SDS011;1438;50.922;6.704;2024-01-06T04:13:16;51.50;;;25.83;;
2860;SDS011;1438;50.922;6.704;2024-01-06T04:15:42;46.60;;;24.50;;
2860;SDS011;1438;50.922;6.704;2024-01-06T04:18:08;44.75;;;25.48;;
2860;SDS011;1438;50.922;6.704;2024-01-06T04:20:34;48.58;;;26.60;;
2860;SDS011;1438;50.922;6.704;2024-01-06T04:23:01;51.92;;;24.00;;
2860;SDS011;1438;50.922;6.704;2024-01-06T04:25:28;51.92;;;26.40;;
2860;SDS011;1438;50.922;6.704;2024-01-06T04:27:54;49.87;;;24.50;;
2860;SDS011;1438;50.922;6.704;2024-01-06T04:30:20;48.87;;;25.80;;
2860;SDS011;1438;50.922;6.704;2024-01-06T04:32:46;54.47;;;27.63;;
2860;SDS011;1438;50.922;6.704;2024-01-06T04:35:13;58.53;;;29.08;;
2860;SDS011;1438;50.922;6.704;2024-01-06T04:37:39;51.72;;;25.02;;
2860;SDS011;1438;50.922;6.704;2024-01-06T04:40:05;54.27;;;26.40;;
2860;SDS011;1438;50.922;6.704;2024-01-06T04:42:32;55.47;;;26.02;;
2860;SDS011;1438;50.922;6.704;2024-01-06T04:44:58;54.90;;;25.60;;
2860;SDS011;1438;50.922;6.704;2024-01-06T04:47:24;54.33;;;25.60;;
2860;SDS011;1438;50.922;6.704;2024-01-06T04:49:51;50.08;;;25.52;;
2860;SDS011;1438;50.922;6.704;2024-01-06T04:52:17;59.47;;;28.47;;
2860;SDS011;1438;50.922;6.704;2024-01-06T04:54:43;60.45;;;28.20;;
2860;SDS011;1438;50.922;6.704;2024-01-06T04:57:09;61.40;;;26.80;;
2860;SDS011;1438;50.922;6.704;2024-01-06T04:59:35;55.57;;;28.30;;
2860;SDS011;1438;50.922;6.704;2024-01-06T05:02:01;52.73;;;24.30;;
2860;SDS011;1438;50.922;6.704;2024-01-06T05:04:27;66.78;;;28.33;;
2860;SDS011;1438;50.922;6.704;2024-01-06T05:06:55;69.10;;;28.30;;
2860;SDS011;1438;50.922;6.704;2024-01-06T05:09:21;59.97;;;28.50;;
2860;SDS011;1438;50.922;6.704;2024-01-06T05:11:47;59.40;;;27.00;;
2860;SDS011;1438;50.922;6.704;2024-01-06T05:14:13;68.60;;;27.60;;
2860;SDS011;1438;50.922;6.704;2024-01-06T05:16:39;53.23;;;24.90;;
2860;SDS011;1438;50.922;6.704;2024-01-06T05:19:05;48.72;;;22.00;;
2860;SDS011;1438;50.922;6.704;2024-01-06T05:21:31;49.42;;;22.42;;
2860;SDS011;1438;50.922;6.704;2024-01-06T05:23:57;45.05;;;20.42;;
2860;SDS011;1438;50.922;6.704;2024-01-06T05:26:23;46.53;;;18.70;;
2860;SDS011;1438;50.922;6.704;2024-01-06T05:28:49;49.37;;;19.10;;
2860;SDS011;1438;50.922;6.704;2024-01-06T05:31:15;48.87;;;19.23;;
2860;SDS011;1438;50.922;6.704;2024-01-06T05:33:41;39.67;;;19.30;;
2860;SDS011;1438;50.922;6.704;2024-01-06T05:36:07;40.75;;;18.13;;
2860;SDS011;1438;50.922;6.704;2024-01-06T05:38:33;34.83;;;16.92;;
2860;SDS011;1438;50.922;6.704;2024-01-06T05:40:59;38.27;;;18.00;;
2860;SDS011;1438;50.922;6.704;2024-01-06T05:43:25;39.90;;;15.00;;
2860;SDS011;1438;50.922;6.704;2024-01-06T05:45:51;31.10;;;14.50;;
2860;SDS011;1438;50.922;6.704;2024-01-06T05:48:17;25.77;;;13.30;;
2860;SDS011;1438;50.922;6.704;2024-01-06T05:50:43;30.17;;;15.23;;
2860;SDS011;1438;50.922;6.704;2024-01-06T05:53:09;31.95;;;14.40;;
2860;SDS011;1438;50.922;6.704;2024-01-06T05:55:36;33.47;;;15.90;;
2860;SDS011;1438;50.922;6.704;2024-01-06T05:58:02;31.93;;;15.40;;
2860;SDS011;1438;50.922;6.704;2024-01-06T06:00:28;34.20;;;14.52;;
2860;SDS011;1438;50.922;6.704;2024-01-06T06:02:56;27.95;;;14.10;;
2860;SDS011;1438;50.922;6.704;2024-01-06T06:05:22;31.17;;;15.13;;
2860;SDS011;1438;50.922;6.704;2024-01-06T06:07:48;33.70;;;14.50;;
2860;SDS011;1438;50.922;6.704;2024-01-06T06:10:14;29.70;;;13.93;;
2860;SDS011;1438;50.922;6.704;2024-01-06T06:12:46;35.20;;;15.07;;
2860;SDS011;1438;50.922;6.704;2024-01-06T06:15:12;32.78;;;14.15;;
2860;SDS011;1438;50.922;6.704;2024-01-06T06:17:39;28.75;;;13.55;;
2860;SDS011;1438;50.922;6.704;2024-01-06T06:20:05;34.97;;;14.73;;
2860;SDS011;1438;50.922;6.704;2024-01-06T06:22:32;26.48;;;13.63;;
2860;SDS011;1438;50.922;6.704;2024-01-06T06:24:58;26.02;;;12.90;;
2860;SDS011;1438;50.922;6.704;2024-01-06T06:27:24;30.48;;;12.55;;
2860;SDS011;1438;50.922;6.704;2024-01-06T06:29:50;31.20;;;14.50;;
2860;SDS011;1438;50.922;6.704;2024-01-06T06:32:16;25.10;;;12.60;;
2860;SDS011;1438;50.922;6.704;2024-01-06T06:34:42;27.33;;;12.20;;
2860;SDS011;1438;50.922;6.704;2024-01-06T06:37:08;24.73;;;11.77;;
2860;SDS011;1438;50.922;6.704;2024-01-06T06:39:34;27.63;;;12.93;;
2860;SDS011;1438;50.922;6.704;2024-01-06T06:42:01;26.60;;;11.82;;
2860;SDS011;1438;50.922;6.704;2024-01-06T06:44:27;31.92;;;13.20;;
2860;SDS011;1438;50.922;6.704;2024-01-06T06:46:54;30.45;;;13.55;;
2860;SDS011;1438;50.922;6.704;2024-01-06T06:49:20;31.73;;;13.60;;
2860;SDS011;1438;50.922;6.704;2024-01-06T06:51:46;30.10;;;14.10;;
2860;SDS011;1438;50.922;6.704;2024-01-06T06:54:13;34.53;;;13.60;;
2860;SDS011;1438;50.922;6.704;2024-01-06T06:56:40;34.42;;;12.88;;
2860;SDS011;1438;50.922;6.704;2024-01-06T06:59:06;34.85;;;14.60;;
2860;SDS011;1438;50.922;6.704;2024-01-06T07:01:32;31.37;;;13.97;;
2860;SDS011;1438;50.922;6.704;2024-01-06T07:03:59;35.50;;;14.10;;
2860;SDS011;1438;50.922;6.704;2024-01-06T07:06:25;30.93;;;14.93;;
2860;SDS011;1438;50.922;6.704;2024-01-06T07:08:51;40.50;;;15.18;;
2860;SDS011;1438;50.922;6.704;2024-01-06T07:11:17;32.00;;;13.13;;
2860;SDS011;1438;50.922;6.704;2024-01-06T07:13:43;32.72;;;15.10;;
2860;SDS011;1438;50.922;6.704;2024-01-06T07:16:09;30.70;;;13.80;;
2860;SDS011;1438;50.922;6.704;2024-01-06T07:18:36;32.15;;;13.88;;
2860;SDS011;1438;50.922;6.704;2024-01-06T07:21:04;31.90;;;13.75;;
2860;SDS011;1438;50.922;6.704;2024-01-06T07:23:31;31.98;;;13.48;;
2860;SDS011;1438;50.922;6.704;2024-01-06T07:25:57;30.58;;;13.73;;
2860;SDS011;1438;50.922;6.704;2024-01-06T07:28:24;30.77;;;15.00;;
2860;SDS011;1438;50.922;6.704;2024-01-06T07:30:50;26.88;;;13.35;;
2860;SDS011;1438;50.922;6.704;2024-01-06T07:33:17;35.95;;;15.55;;
2860;SDS011;1438;50.922;6.704;2024-01-06T07:35:43;31.57;;;14.47;;
2860;SDS011;1438;50.922;6.704;2024-01-06T07:38:09;35.47;;;13.30;;
2860;SDS011;1438;50.922;6.704;2024-01-06T07:40:36;34.53;;;15.45;;
2860;SDS011;1438;50.922;6.704;2024-01-06T07:43:02;35.53;;;15.40;;
2860;SDS011;1438;50.922;6.704;2024-01-06T07:45:28;32.50;;;13.55;;
2860;SDS011;1438;50.922;6.704;2024-01-06T07:47:54;34.50;;;15.60;;
2860;SDS011;1438;50.922;6.704;2024-01-06T07:50:19;29.20;;;13.10;;
2860;SDS011;1438;50.922;6.704;2024-01-06T07:52:45;29.93;;;13.60;;
2860;SDS011;1438;50.922;6.704;2024-01-06T07:55:11;34.27;;;15.70;;
2860;SDS011;1438;50.922;6.704;2024-01-06T07:57:37;37.80;;;15.07;;
2860;SDS011;1438;50.922;6.704;2024-01-06T08:00:03;30.57;;;13.80;;
2860;SDS011;1438;50.922;6.704;2024-01-06T08:02:30;33.30;;;14.02;;
2860;SDS011;1438;50.922;6.704;2024-01-06T08:04:56;37.00;;;15.83;;
2860;SDS011;1438;50.922;6.704;2024-01-06T08:07:22;27.73;;;12.68;;
2860;SDS011;1438;50.922;6.704;2024-01-06T08:09:48;28.13;;;14.68;;
2860;SDS011;1438;50.922;6.704;2024-01-06T08:12:15;26.50;;;12.70;;
2860;SDS011;1438;50.922;6.704;2024-01-06T08:14:41;33.20;;;14.77;;
2860;SDS011;1438;50.922;6.704;2024-01-06T08:17:06;30.93;;;14.23;;
2860;SDS011;1438;50.922;6.704;2024-01-06T08:19:32;29.35;;;12.00;;
2860;SDS011;1438;50.922;6.704;2024-01-06T08:22:00;39.05;;;14.23;;
2860;SDS011;1438;50.922;6.704;2024-01-06T08:24:26;37.77;;;16.00;;
2860;SDS011;1438;50.922;6.704;2024-01-06T08:26:52;31.77;;;14.90;;
2860;SDS011;1438;50.922;6.704;2024-01-06T08:29:18;26.55;;;13.63;;
2860;SDS011;1438;50.922;6.704;2024-01-06T08:31:45;33.28;;;16.70;;
2860;SDS011;1438;50.922;6.704;2024-01-06T08:34:11;32.88;;;14.80;;
2860;SDS011;1438;50.922;6.704;2024-01-06T08:36:37;33.97;;;14.90;;
2860;SDS011;1438;50.922;6.704;2024-01-06T08:39:03;25.48;;;12.57;;
2860;SDS011;1438;50.922;6.704;2024-01-06T08:41:29;32.00;;;14.52;;
2860;SDS011;1438;50.922;6.704;2024-01-06T08:43:55;29.92;;;13.85;;
2860;SDS011;1438;50.922;6.704;2024-01-06T08:46:21;31.33;;;13.40;;
2860;SDS011;1438;50.922;6.704;2024-01-06T08:48:47;34.00;;;14.40;;
2860;SDS011;1438;50.922;6.704;2024-01-06T08:51:13;28.00;;;14.27;;
2860;SDS011;1438;50.922;6.704;2024-01-06T08:53:39;34.80;;;14.97;;
2860;SDS011;1438;50.922;6.704;2024-01-06T08:56:05;30.30;;;13.87;;
2860;SDS011;1438;50.922;6.704;2024-01-06T08:58:31;27.85;;;12.27;;
2860;SDS011;1438;50.922;6.704;2024-01-06T09:00:57;24.90;;;12.03;;
2860;SDS011;1438;50.922;6.704;2024-01-06T09:03:24;29.95;;;12.23;;
2860;SDS011;1438;50.922;6.704;2024-01-06T09:05:55;30.52;;;12.55;;
2860;SDS011;1438;50.922;6.704;2024-01-06T09:08:22;28.27;;;13.20;;
2860;SDS011;1438;50.922;6.704;2024-01-06T09:10:52;28.50;;;12.18;;
2860;SDS011;1438;50.922;6.704;2024-01-06T09:13:22;24.92;;;11.23;;
2860;SDS011;1438;50.922;6.704;2024-01-06T09:15:48;30.85;;;13.23;;
2860;SDS011;1438;50.922;6.704;2024-01-06T09:18:14;18.33;;;10.90;;
2860;SDS011;1438;50.922;6.704;2024-01-06T09:20:40;19.90;;;12.20;;
2860;SDS011;1438;50.922;6.704;2024-01-06T09:23:06;21.70;;;9.77;;
2860;SDS011;1438;50.922;6.704;2024-01-06T09:25:32;22.83;;;11.18;;
2860;SDS011;1438;50.922;6.704;2024-01-06T09:27:58;27.15;;;10.73;;
2860;SDS011;1438;50.922;6.704;2024-01-06T09:30:25;22.63;;;10.25;;
2860;SDS011;1438;50.922;6.704;2024-01-06T09:32:52;21.10;;;10.00;;
2860;SDS011;1438;50.922;6.704;2024-01-06T09:35:18;18.47;;;9.90;;
2860;SDS011;1438;50.922;6.704;2024-01-06T09:37:44;25.45;;;10.63;;
2860;SDS011;1438;50.922;6.704;2024-01-06T09:40:11;25.73;;;10.13;;
2860;SDS011;1438;50.922;6.704;2024-01-06T09:42:40;18.45;;;9.35;;
2860;SDS011;1438;50.922;6.704;2024-01-06T09:45:07;29.42;;;15.18;;
2860;SDS011;1438;50.922;6.704;2024-01-06T09:47:34;20.27;;;9.85;;
2860;SDS011;1438;50.922;6.704;2024-01-06T09:50:01;20.70;;;9.10;;
2860;SDS011;1438;50.922;6.704;2024-01-06T09:52:29;18.48;;;8.75;;
2860;SDS011;1438;50.922;6.704;2024-01-06T09:54:57;24.13;;;9.70;;
2860;SDS011;1438;50.922;6.704;2024-01-06T09:57:25;16.17;;;9.05;;
2860;SDS011;1438;50.922;6.704;2024-01-06T09:59:52;18.45;;;8.50;;
2860;SDS011;1438;50.922;6.704;2024-01-06T10:02:18;15.90;;;8.50;;
2860;SDS011;1438;50.922;6.704;2024-01-06T10:04:45;17.25;;;9.48;;
2860;SDS011;1438;50.922;6.704;2024-01-06T10:07:11;19.23;;;11.57;;
2860;SDS011;1438;50.922;6.704;2024-01-06T10:09:39;19.90;;;9.85;;
2860;SDS011;1438;50.922;6.704;2024-01-06T10:12:06;18.60;;;11.10;;
2860;SDS011;1438;50.922;6.704;2024-01-06T10:14:32;21.25;;;10.80;;
2860;SDS011;1438;50.922;6.704;2024-01-06T10:16:58;22.77;;;11.23;;
2860;SDS011;1438;50.922;6.704;2024-01-06T10:19:24;19.90;;;9.47;;
2860;SDS011;1438;50.922;6.704;2024-01-06T10:21:50;20.02;;;10.27;;
2860;SDS011;1438;50.922;6.704;2024-01-06T10:24:19;20.23;;;10.05;;
2860;SDS011;1438;50.922;6.704;2024-01-06T10:26:45;18.83;;;10.95;;
2860;SDS011;1438;50.922;6.704;2024-01-06T10:29:12;18.05;;;9.05;;
2860;SDS011;1438;50.922;6.704;2024-01-06T10:31:38;21.48;;;10.05;;
2860;SDS011;1438;50.922;6.704;2024-01-06T10:34:05;21.75;;;11.02;;
2860;SDS011;1438;50.922;6.704;2024-01-06T10:36:31;20.65;;;11.02;;
2860;SDS011;1438;50.922;6.704;2024-01-06T10:38:57;17.73;;;9.10;;
2860;SDS011;1438;50.922;6.704;2024-01-06T10:41:23;17.77;;;9.75;;
2860;SDS011;1438;50.922;6.704;2024-01-06T10:43:50;20.33;;;10.43;;
2860;SDS011;1438;50.922;6.704;2024-01-06T10:46:18;20.17;;;9.52;;
2860;SDS011;1438;50.922;6.704;2024-01-06T10:48:44;18.80;;;10.30;;
2860;SDS011;1438;50.922;6.704;2024-01-06T10:51:12;17.15;;;9.60;;
2860;SDS011;1438;50.922;6.704;2024-01-06T10:53:39;19.25;;;10.55;;
2860;SDS011;1438;50.922;6.704;2024-01-06T10:56:06;21.42;;;10.95;;
2860;SDS011;1438;50.922;6.704;2024-01-06T10:58:56;18.25;;;9.98;;
2860;SDS011;1438;50.922;6.704;2024-01-06T11:01:23;17.23;;;9.98;;
2860;SDS011;1438;50.922;6.704;2024-01-06T11:03:49;17.25;;;9.52;;
2860;SDS011;1438;50.922;6.704;2024-01-06T11:06:16;17.55;;;9.35;;
2860;SDS011;1438;50.922;6.704;2024-01-06T11:11:15;16.05;;;9.15;;
2860;SDS011;1438;50.922;6.704;2024-01-06T11:13:42;19.10;;;10.45;;
2860;SDS011;1438;50.922;6.704;2024-01-06T11:16:10;21.60;;;9.80;;
2860;SDS011;1438;50.922;6.704;2024-01-06T11:18:39;18.98;;;10.00;;
2860;SDS011;1438;50.922;6.704;2024-01-06T11:23:38;15.50;;;8.75;;
2860;SDS011;1438;50.922;6.704;2024-01-06T11:26:06;19.00;;;9.47;;
2860;SDS011;1438;50.922;6.704;2024-01-06T11:28:42;17.25;;;9.43;;
2860;SDS011;1438;50.922;6.704;2024-01-06T11:31:09;14.18;;;7.28;;
2860;SDS011;1438;50.922;6.704;2024-01-06T11:33:45;17.63;;;9.27;;
2860;SDS011;1438;50.922;6.704;2024-01-06T11:36:16;15.60;;;9.75;;
2860;SDS011;1438;50.922;6.704;2024-01-06T11:38:42;16.65;;;9.02;;
2860;SDS011;1438;50.922;6.704;2024-01-06T11:41:44;16.77;;;8.43;;
2860;SDS011;1438;50.922;6.704;2024-01-06T11:43:59;17.13;;;9.13;;
2860;SDS011;1438;50.922;6.704;2024-01-06T11:46:25;17.37;;;10.17;;
2860;SDS011;1438;50.922;6.704;2024-01-06T11:48:51;15.93;;;8.07;;
2860;SDS011;1438;50.922;6.704;2024-01-06T11:51:18;14.38;;;8.18;;
2860;SDS011;1438;50.922;6.704;2024-01-06T11:53:44;14.15;;;7.85;;
2860;SDS011;1438;50.922;6.704;2024-01-06T11:56:11;17.73;;;8.30;;
2860;SDS011;1438;50.922;6.704;2024-01-06T11:58:40;14.00;;;7.97;;
2860;SDS011;1438;50.922;6.704;2024-01-06T12:01:07;18.58;;;8.40;;
2860;SDS011;1438;50.922;6.704;2024-01-06T12:03:33;15.77;;;7.37;;
2860;SDS011;1438;50.922;6.704;2024-01-06T12:05:59;14.90;;;6.78;;
2860;SDS011;1438;50.922;6.704;2024-01-06T12:08:26;14.10;;;7.45;;
2860;SDS011;1438;50.922;6.704;2024-01-06T12:11:01;13.43;;;7.13;;
2860;SDS011;1438;50.922;6.704;2024-01-06T12:13:27;16.58;;;7.75;;
2860;SDS011;1438;50.922;6.704;2024-01-06T12:15:53;17.27;;;9.27;;
2860;SDS011;1438;50.922;6.704;2024-01-06T12:18:21;13.57;;;7.85;;
2860;SDS011;1438;50.922;6.704;2024-01-06T12:20:48;15.88;;;9.02;;
2860;SDS011;1438;50.922;6.704;2024-01-06T12:23:23;20.60;;;9.83;;
2860;SDS011;1438;50.922;6.704;2024-01-06T12:25:49;19.13;;;9.60;;
2860;SDS011;1438;50.922;6.704;2024-01-06T12:28:15;17.80;;;9.25;;
2860;SDS011;1438;50.922;6.704;2024-01-06T12:30:41;17.75;;;9.13;;
2860;SDS011;1438;50.922;6.704;2024-01-06T12:33:07;17.23;;;8.50;;
2860;SDS011;1438;50.922;6.704;2024-01-06T12:35:34;20.05;;;8.85;;
2860;SDS011;1438;50.922;6.704;2024-01-06T12:38:01;22.20;;;9.75;;
2860;SDS011;1438;50.922;6.704;2024-01-06T12:40:27;17.50;;;8.70;;
2860;SDS011;1438;50.922;6.704;2024-01-06T12:42:53;17.20;;;9.77;;
2860;SDS011;1438;50.922;6.704;2024-01-06T12:45:19;17.03;;;9.37;;
2860;SDS011;1438;50.922;6.704;2024-01-06T12:47:45;18.87;;;10.47;;
2860;SDS011;1438;50.922;6.704;2024-01-06T12:50:11;16.57;;;8.97;;
2860;SDS011;1438;50.922;6.704;2024-01-06T12:52:37;19.75;;;11.52;;
2860;SDS011;1438;50.922;6.704;2024-01-06T12:55:04;17.45;;;9.73;;
2860;SDS011;1438;50.922;6.704;2024-01-06T12:57:30;15.07;;;9.25;;
2860;SDS011;1438;50.922;6.704;2024-01-06T12:59:56;18.95;;;10.70;;
2860;SDS011;1438;50.922;6.704;2024-01-06T13:02:23;19.60;;;9.82;;
2860;SDS011;1438;50.922;6.704;2024-01-06T13:04:49;21.70;;;11.20;;
2860;SDS011;1438;50.922;6.704;2024-01-06T13:07:14;20.90;;;11.00;;
2860;SDS011;1438;50.922;6.704;2024-01-06T13:09:40;19.55;;;10.52;;
2860;SDS011;1438;50.922;6.704;2024-01-06T13:12:07;18.92;;;9.65;;
2860;SDS011;1438;50.922;6.704;2024-01-06T13:14:33;28.00;;;10.95;;
2860;SDS011;1438;50.922;6.704;2024-01-06T13:17:00;21.52;;;12.38;;
2860;SDS011;1438;50.922;6.704;2024-01-06T13:19:27;18.63;;;10.95;;
2860;SDS011;1438;50.922;6.704;2024-01-06T13:21:53;26.10;;;11.60;;
2860;SDS011;1438;50.922;6.704;2024-01-06T13:24:19;22.90;;;9.73;;
2860;SDS011;1438;50.922;6.704;2024-01-06T13:26:45;21.60;;;10.27;;
2860;SDS011;1438;50.922;6.704;2024-01-06T13:29:11;24.55;;;10.00;;
2860;SDS011;1438;50.922;6.704;2024-01-06T13:31:38;21.23;;;11.85;;
2860;SDS011;1438;50.922;6.704;2024-01-06T13:34:04;27.35;;;16.05;;
2860;SDS011;1438;50.922;6.704;2024-01-06T13:36:30;21.95;;;12.98;;
2860;SDS011;1438;50.922;6.704;2024-01-06T13:38:58;25.42;;;13.65;;
2860;SDS011;1438;50.922;6.704;2024-01-06T13:41:25;24.55;;;14.48;;
2860;SDS011;1438;50.922;6.704;2024-01-06T13:43:51;27.55;;;11.98;;
2860;SDS011;1438;50.922;6.704;2024-01-06T13:46:17;24.92;;;15.27;;
2860;SDS011;1438;50.922;6.704;2024-01-06T13:48:43;24.20;;;12.45;;
2860;SDS011;1438;50.922;6.704;2024-01-06T13:51:09;22.50;;;13.67;;
2860;SDS011;1438;50.922;6.704;2024-01-06T13:53:35;27.33;;;16.17;;
2860;SDS011;1438;50.922;6.704;2024-01-06T13:56:01;24.67;;;12.73;;
2860;SDS011;1438;50.922;6.704;2024-01-06T13:58:28;39.97;;;20.10;;
2860;SDS011;1438;50.922;6.704;2024-01-06T14:00:54;30.73;;;16.50;;
2860;SDS011;1438;50.922;6.704;2024-01-06T14:03:20;30.88;;;14.73;;
2860;SDS011;1438;50.922;6.704;2024-01-06T14:05:47;54.42;;;26.75;;
2860;SDS011;1438;50.922;6.704;2024-01-06T14:08:13;51.88;;;26.13;;
2860;SDS011;1438;50.922;6.704;2024-01-06T14:10:39;46.23;;;22.80;;
2860;SDS011;1438;50.922;6.704;2024-01-06T14:13:05;47.40;;;23.50;;
2860;SDS011;1438;50.922;6.704;2024-01-06T14:15:32;42.67;;;20.65;;
2860;SDS011;1438;50.922;6.704;2024-01-06T14:17:58;31.47;;;15.70;;
2860;SDS011;1438;50.922;6.704;2024-01-06T14:20:24;30.42;;;15.80;;
2860;SDS011;1438;50.922;6.704;2024-01-06T14:22:50;32.70;;;17.00;;
2860;SDS011;1438;50.922;6.704;2024-01-06T14:25:16;32.57;;;17.80;;
2860;SDS011;1438;50.922;6.704;2024-01-06T14:27:43;41.25;;;20.63;;
2860;SDS011;1438;50.922;6.704;2024-01-06T14:30:09;31.80;;;15.55;;
2860;SDS011;1438;50.922;6.704;2024-01-06T14:32:36;31.95;;;15.45;;
2860;SDS011;1438;50.922;6.704;2024-01-06T14:35:05;24.90;;;13.55;;
2860;SDS011;1438;50.922;6.704;2024-01-06T14:37:32;34.53;;;16.75;;
2860;SDS011;1438;50.922;6.704;2024-01-06T14:39:58;30.33;;;15.20;;
2860;SDS011;1438;50.922;6.704;2024-01-06T14:42:24;30.90;;;14.73;;
2860;SDS011;1438;50.922;6.704;2024-01-06T14:44:50;28.52;;;16.55;;
2860;SDS011;1438;50.922;6.704;2024-01-06T14:47:16;32.53;;;17.30;;
2860;SDS011;1438;50.922;6.704;2024-01-06T14:49:42;33.70;;;16.80;;
2860;SDS011;1438;50.922;6.704;2024-01-06T14:52:07;34.10;;;15.83;;